KDCU/DCU METAR and TAF weather

Enter ICAO airport designator
Station Type Date Time Source
KDCU METAR 2022/06/30 12:53 UTC NOAA

KDCU 301253Z AUTO 15007KT 9SM SCT033 24/22 A3022 RMK AO2 SLP225 T02440222


Station Type Date Time Source
KDCU Decoded METAR 2022/06/30 12:53 UTC NOAA

PRYOR FIELD, AL, United States (KDCU) 34-39N 086-57W 176M
Jun 30, 2022 - 08:53 AM EDT / 2022.06.30 1253 UTC
Wind: from the SSE (150 degrees) at 8 MPH (7 KT):0
Visibility: 9 mile(s):0
Sky conditions: partly cloudy
Temperature: 75.9 F (24.4 C)
Dew Point: 72.0 F (22.2 C)
Relative Humidity: 87%
Pressure (altimeter): 30.22 in. Hg (1023 hPa)
ob: KDCU 301253Z AUTO 15007KT 9SM SCT033 24/22 A3022 RMK AO2 SLP225 T02440222
cycle: 13

Station Type Date Time Source
KDCU TAF UTC NOAA

Error!

Example: see airport list